sensor_id;sensor_type;location;lat;lon;timestamp;pressure;altitude;pressure_sealevel;temperature;humidity
68807;BME280;55800;54.272;18.558;2023-06-14T00:02:07;101265.13;;;14.37;52.61
68807;BME280;55800;54.272;18.558;2023-06-14T00:04:37;101267.09;;;14.33;53.37
68807;BME280;55800;54.272;18.558;2023-06-14T00:07:08;101264.72;;;14.26;52.77
68807;BME280;55800;54.272;18.558;2023-06-14T00:09:41;101257.66;;;14.23;52.91
68807;BME280;55800;54.272;18.558;2023-06-14T00:12:11;101258.72;;;14.21;50.80
68807;BME280;55800;54.272;18.558;2023-06-14T00:14:40;101261.44;;;14.19;51.58
68807;BME280;55800;54.272;18.558;2023-06-14T00:17:09;101261.59;;;14.16;50.45
68807;BME280;55800;54.272;18.558;2023-06-14T00:19:38;101259.13;;;14.12;50.12
68807;BME280;55800;54.272;18.558;2023-06-14T00:22:09;101257.34;;;14.10;50.02
68807;BME280;55800;54.272;18.558;2023-06-14T00:24:40;101248.66;;;14.05;49.98
68807;BME280;55800;54.272;18.558;2023-06-14T00:27:09;101251.34;;;14.05;51.82
68807;BME280;55800;54.272;18.558;2023-06-14T00:29:39;101250.38;;;14.06;51.02
68807;BME280;55800;54.272;18.558;2023-06-14T00:32:08;101251.38;;;14.04;53.36
68807;BME280;55800;54.272;18.558;2023-06-14T00:34:37;101252.28;;;14.04;51.69
68807;BME280;55800;54.272;18.558;2023-06-14T00:37:10;101248.94;;;13.99;51.88
68807;BME280;55800;54.272;18.558;2023-06-14T00:39:39;101250.59;;;14.02;50.25
68807;BME280;55800;54.272;18.558;2023-06-14T00:42:08;101255.97;;;14.02;50.02
68807;BME280;55800;54.272;18.558;2023-06-14T00:44:37;101254.31;;;13.99;51.57
68807;BME280;55800;54.272;18.558;2023-06-14T00:47:07;101253.34;;;14.00;50.04
68807;BME280;55800;54.272;18.558;2023-06-14T00:49:36;101262.31;;;14.01;49.99
68807;BME280;55800;54.272;18.558;2023-06-14T00:52:05;101254.44;;;13.96;49.37
68807;BME280;55800;54.272;18.558;2023-06-14T00:54:36;101249.94;;;13.97;50.46
68807;BME280;55800;54.272;18.558;2023-06-14T00:57:05;101262.44;;;13.98;50.42
68807;BME280;55800;54.272;18.558;2023-06-14T00:59:37;101252.44;;;14.01;50.58
68807;BME280;55800;54.272;18.558;2023-06-14T01:02:07;101260.53;;;14.00;51.23
68807;BME280;55800;54.272;18.558;2023-06-14T01:04:37;101254.03;;;14.05;50.94
68807;BME280;55800;54.272;18.558;2023-06-14T01:07:15;101247.78;;;14.05;51.01
68807;BME280;55800;54.272;18.558;2023-06-14T01:10:03;101254.16;;;14.02;49.77
68807;BME280;55800;54.272;18.558;2023-06-14T01:12:43;101253.44;;;13.99;50.52
68807;BME280;55800;54.272;18.558;2023-06-14T01:15:14;101252.34;;;14.03;51.14
68807;BME280;55800;54.272;18.558;2023-06-14T01:17:45;101247.97;;;14.00;50.01
68807;BME280;55800;54.272;18.558;2023-06-14T01:20:21;101258.72;;;14.00;50.49
68807;BME280;55800;54.272;18.558;2023-06-14T01:22:53;101251.69;;;13.98;50.04
68807;BME280;55800;54.272;18.558;2023-06-14T01:25:23;101246.31;;;13.98;50.19
68807;BME280;55800;54.272;18.558;2023-06-14T01:27:55;101244.69;;;13.94;50.78
68807;BME280;55800;54.272;18.558;2023-06-14T01:30:26;101245.78;;;13.90;51.00
68807;BME280;55800;54.272;18.558;2023-06-14T01:32:57;101240.41;;;13.90;51.94
68807;BME280;55800;54.272;18.558;2023-06-14T01:35:27;101243.22;;;13.87;51.45
68807;BME280;55800;54.272;18.558;2023-06-14T01:37:57;101241.56;;;13.84;53.36
68807;BME280;55800;54.272;18.558;2023-06-14T01:40:31;101236.41;;;13.80;51.93
68807;BME280;55800;54.272;18.558;2023-06-14T01:43:02;101232.91;;;13.78;52.35
68807;BME280;55800;54.272;18.558;2023-06-14T01:45:32;101238.50;;;13.73;53.32
68807;BME280;55800;54.272;18.558;2023-06-14T01:48:02;101235.06;;;13.70;51.03
68807;BME280;55800;54.272;18.558;2023-06-14T01:50:32;101240.66;;;13.65;50.61
68807;BME280;55800;54.272;18.558;2023-06-14T01:53:02;101235.56;;;13.59;49.45
68807;BME280;55800;54.272;18.558;2023-06-14T01:55:32;101243.75;;;13.56;50.11
68807;BME280;55800;54.272;18.558;2023-06-14T01:58:07;101237.63;;;13.53;50.34
68807;BME280;55800;54.272;18.558;2023-06-14T02:00:36;101243.06;;;13.51;49.85
68807;BME280;55800;54.272;18.558;2023-06-14T02:03:06;101230.59;;;13.50;50.36
68807;BME280;55800;54.272;18.558;2023-06-14T02:05:35;101236.84;;;13.51;51.74
68807;BME280;55800;54.272;18.558;2023-06-14T02:08:08;101239.56;;;13.49;52.80
68807;BME280;55800;54.272;18.558;2023-06-14T02:10:38;101237.75;;;13.50;51.22
68807;BME280;55800;54.272;18.558;2023-06-14T02:13:08;101234.38;;;13.45;51.54
68807;BME280;55800;54.272;18.558;2023-06-14T02:15:37;101232.75;;;13.42;53.41
68807;BME280;55800;54.272;18.558;2023-06-14T02:18:06;101227.28;;;13.44;53.51
68807;BME280;55800;54.272;18.558;2023-06-14T02:20:35;101231.25;;;13.35;51.41
68807;BME280;55800;54.272;18.558;2023-06-14T02:23:06;101232.16;;;13.34;52.04
68807;BME280;55800;54.272;18.558;2023-06-14T02:25:36;101228.56;;;13.35;51.87
68807;BME280;55800;54.272;18.558;2023-06-14T02:28:08;101236.63;;;13.35;53.40
68807;BME280;55800;54.272;18.558;2023-06-14T02:33:50;101239.31;;;13.35;56.17
68807;BME280;55800;54.272;18.558;2023-06-14T02:36:20;101240.19;;;13.36;54.88
68807;BME280;55800;54.272;18.558;2023-06-14T02:38:51;101238.56;;;13.32;54.07
68807;BME280;55800;54.272;18.558;2023-06-14T02:41:22;101233.44;;;13.25;53.26
68807;BME280;55800;54.272;18.558;2023-06-14T02:43:53;101236.19;;;13.24;52.76
68807;BME280;55800;54.272;18.558;2023-06-14T02:46:24;101232.88;;;13.19;52.05
68807;BME280;55800;54.272;18.558;2023-06-14T02:48:53;101234.47;;;13.23;56.88
68807;BME280;55800;54.272;18.558;2023-06-14T02:51:22;101230.56;;;13.30;54.45
68807;BME280;55800;54.272;18.558;2023-06-14T02:53:53;101232.59;;;13.25;54.68
68807;BME280;55800;54.272;18.558;2023-06-14T02:56:22;101230.75;;;13.25;54.75
68807;BME280;55800;54.272;18.558;2023-06-14T02:58:51;101228.88;;;13.27;54.68
68807;BME280;55800;54.272;18.558;2023-06-14T03:01:21;101233.25;;;13.30;56.70
68807;BME280;55800;54.272;18.558;2023-06-14T03:03:51;101222.38;;;13.33;57.46
68807;BME280;55800;54.272;18.558;2023-06-14T03:06:20;101234.22;;;13.29;55.04
68807;BME280;55800;54.272;18.558;2023-06-14T03:08:55;101236.91;;;13.29;55.10
68807;BME280;55800;54.272;18.558;2023-06-14T03:11:29;101231.38;;;13.32;56.89
68807;BME280;55800;54.272;18.558;2023-06-14T03:13:59;101238.34;;;13.36;55.06
68807;BME280;55800;54.272;18.558;2023-06-14T03:16:32;101237.53;;;13.34;53.84
68807;BME280;55800;54.272;18.558;2023-06-14T03:19:01;101234.63;;;13.40;53.74
68807;BME280;55800;54.272;18.558;2023-06-14T03:21:32;101233.34;;;13.49;55.17
68807;BME280;55800;54.272;18.558;2023-06-14T03:24:06;101234.88;;;13.54;57.03
68807;BME280;55800;54.272;18.558;2023-06-14T03:26:35;101246.34;;;13.58;55.36
68807;BME280;55800;54.272;18.558;2023-06-14T03:29:06;101243.53;;;13.61;54.97
68807;BME280;55800;54.272;18.558;2023-06-14T03:31:35;101246.88;;;13.66;56.91
68807;BME280;55800;54.272;18.558;2023-06-14T03:34:06;101240.50;;;13.68;57.59
68807;BME280;55800;54.272;18.558;2023-06-14T03:36:35;101241.31;;;13.70;56.77
68807;BME280;55800;54.272;18.558;2023-06-14T03:39:06;101240.91;;;13.79;56.10
68807;BME280;55800;54.272;18.558;2023-06-14T03:41:35;101251.53;;;13.82;55.74
68807;BME280;55800;54.272;18.558;2023-06-14T03:44:04;101249.47;;;13.87;57.16
68807;BME280;55800;54.272;18.558;2023-06-14T03:46:34;101250.94;;;13.94;56.61
68807;BME280;55800;54.272;18.558;2023-06-14T03:49:03;101252.69;;;13.95;55.22
68807;BME280;55800;54.272;18.558;2023-06-14T03:51:32;101255.16;;;14.00;56.36
68807;BME280;55800;54.272;18.558;2023-06-14T03:54:04;101251.19;;;14.08;56.00
68807;BME280;55800;54.272;18.558;2023-06-14T03:56:54;101256.22;;;14.16;54.69
68807;BME280;55800;54.272;18.558;2023-06-14T03:59:25;101255.78;;;14.25;57.80
68807;BME280;55800;54.272;18.558;2023-06-14T04:01:56;101259.03;;;14.33;58.82
68807;BME280;55800;54.272;18.558;2023-06-14T04:04:25;101255.84;;;14.44;57.82
68807;BME280;55800;54.272;18.558;2023-06-14T04:06:58;101245.28;;;14.58;58.77
68807;BME280;55800;54.272;18.558;2023-06-14T04:09:30;101256.22;;;14.72;58.07
68807;BME280;55800;54.272;18.558;2023-06-14T04:12:00;101252.97;;;14.84;58.52
68807;BME280;55800;54.272;18.558;2023-06-14T04:14:33;101261.13;;;15.00;57.58
68807;BME280;55800;54.272;18.558;2023-06-14T04:17:03;101257.91;;;15.10;58.31
68807;BME280;55800;54.272;18.558;2023-06-14T04:19:33;101252.53;;;15.27;58.21
68807;BME280;55800;54.272;18.558;2023-06-14T04:22:03;101255.25;;;15.44;56.94
68807;BME280;55800;54.272;18.558;2023-06-14T04:24:36;101251.63;;;15.63;56.47
68807;BME280;55800;54.272;18.558;2023-06-14T04:27:06;101249.41;;;15.71;59.81
68807;BME280;55800;54.272;18.558;2023-06-14T04:29:37;101246.13;;;15.81;59.85
68807;BME280;55800;54.272;18.558;2023-06-14T04:32:11;101242.59;;;15.96;58.27
68807;BME280;55800;54.272;18.558;2023-06-14T04:34:41;101254.47;;;16.09;59.17
68807;BME280;55800;54.272;18.558;2023-06-14T04:37:12;101245.00;;;16.18;59.56
68807;BME280;55800;54.272;18.558;2023-06-14T04:39:44;101247.56;;;16.36;57.54
68807;BME280;55800;54.272;18.558;2023-06-14T04:42:13;101254.75;;;16.53;56.46
68807;BME280;55800;54.272;18.558;2023-06-14T04:44:44;101250.41;;;16.66;56.50
68807;BME280;55800;54.272;18.558;2023-06-14T04:47:15;101253.16;;;16.80;55.91
68807;BME280;55800;54.272;18.558;2023-06-14T04:49:44;101251.50;;;16.93;56.33
68807;BME280;55800;54.272;18.558;2023-06-14T04:52:14;101259.84;;;17.04;56.41
68807;BME280;55800;54.272;18.558;2023-06-14T04:54:47;101253.13;;;17.11;56.03
68807;BME280;55800;54.272;18.558;2023-06-14T04:57:19;101251.63;;;17.22;54.75
68807;BME280;55800;54.272;18.558;2023-06-14T04:59:53;101248.47;;;17.29;55.36
68807;BME280;55800;54.272;18.558;2023-06-14T05:02:23;101248.97;;;17.36;55.82
68807;BME280;55800;54.272;18.558;2023-06-14T05:04:54;101251.19;;;17.43;54.37
68807;BME280;55800;54.272;18.558;2023-06-14T05:07:24;101250.78;;;17.51;53.75
68807;BME280;55800;54.272;18.558;2023-06-14T05:09:56;101259.41;;;17.57;53.53
68807;BME280;55800;54.272;18.558;2023-06-14T05:12:26;101257.09;;;17.65;53.54
68807;BME280;55800;54.272;18.558;2023-06-14T05:14:58;101254.13;;;17.70;54.88
68807;BME280;55800;54.272;18.558;2023-06-14T05:17:28;101255.50;;;17.77;55.26
68807;BME280;55800;54.272;18.558;2023-06-14T05:19:57;101251.41;;;17.84;55.38
68807;BME280;55800;54.272;18.558;2023-06-14T05:22:26;101252.78;;;17.91;54.25
68807;BME280;55800;54.272;18.558;2023-06-14T05:24:57;101248.75;;;17.98;53.62
68807;BME280;55800;54.272;18.558;2023-06-14T05:27:26;101250.97;;;18.06;55.78
68807;BME280;55800;54.272;18.558;2023-06-14T05:29:56;101257.81;;;18.11;54.31
68807;BME280;55800;54.272;18.558;2023-06-14T05:32:26;101260.81;;;18.21;53.88
68807;BME280;55800;54.272;18.558;2023-06-14T05:34:56;101254.84;;;18.30;53.31
68807;BME280;55800;54.272;18.558;2023-06-14T05:37:25;101249.78;;;18.38;53.03
68807;BME280;55800;54.272;18.558;2023-06-14T05:39:54;101253.69;;;18.48;53.28
68807;BME280;55800;54.272;18.558;2023-06-14T05:42:25;101265.56;;;18.59;53.67
68807;BME280;55800;54.272;18.558;2023-06-14T05:44:54;101255.88;;;18.69;53.56
68807;BME280;55800;54.272;18.558;2023-06-14T05:47:23;101256.03;;;18.81;53.85
68807;BME280;55800;54.272;18.558;2023-06-14T05:49:53;101256.19;;;18.92;53.39
68807;BME280;55800;54.272;18.558;2023-06-14T05:52:23;101264.41;;;19.04;53.29
68807;BME280;55800;54.272;18.558;2023-06-14T05:54:53;101269.94;;;19.15;53.43
68807;BME280;55800;54.272;18.558;2023-06-14T05:57:24;101252.09;;;19.25;52.53
68807;BME280;55800;54.272;18.558;2023-06-14T05:59:53;101263.88;;;19.38;52.90
68807;BME280;55800;54.272;18.558;2023-06-14T06:02:22;101271.69;;;19.43;53.16
68807;BME280;55800;54.272;18.558;2023-06-14T06:04:51;101270.00;;;19.55;52.88
68807;BME280;55800;54.272;18.558;2023-06-14T06:07:20;101268.50;;;19.63;53.27
68807;BME280;55800;54.272;18.558;2023-06-14T06:09:49;101267.88;;;19.72;52.18
68807;BME280;55800;54.272;18.558;2023-06-14T06:12:18;101267.00;;;19.84;52.31
68807;BME280;55800;54.272;18.558;2023-06-14T06:14:49;101270.03;;;19.92;52.32
68807;BME280;55800;54.272;18.558;2023-06-14T06:17:18;101267.56;;;20.02;52.39
68807;BME280;55800;54.272;18.558;2023-06-14T06:19:48;101277.66;;;20.12;51.88
68807;BME280;55800;54.272;18.558;2023-06-14T06:22:17;101276.06;;;20.23;51.82
68807;BME280;55800;54.272;18.558;2023-06-14T06:24:46;101270.38;;;20.26;51.93
68807;BME280;55800;54.272;18.558;2023-06-14T06:27:15;101266.16;;;20.34;51.67
68807;BME280;55800;54.272;18.558;2023-06-14T06:29:46;101270.28;;;20.40;51.76
68807;BME280;55800;54.272;18.558;2023-06-14T06:32:17;101269.72;;;20.47;51.31
68807;BME280;55800;54.272;18.558;2023-06-14T06:34:47;101276.34;;;20.56;50.87
68807;BME280;55800;54.272;18.558;2023-06-14T06:37:16;101273.91;;;20.64;50.83
68807;BME280;55800;54.272;18.558;2023-06-14T06:39:46;101271.53;;;20.72;50.91
68807;BME280;55800;54.272;18.558;2023-06-14T06:42:15;101267.34;;;20.79;50.54
68807;BME280;55800;54.272;18.558;2023-06-14T06:44:44;101275.81;;;20.87;50.74
68807;BME280;55800;54.272;18.558;2023-06-14T06:47:14;101278.47;;;20.99;50.37
68807;BME280;55800;54.272;18.558;2023-06-14T06:49:45;101267.50;;;21.01;49.15
68807;BME280;55800;54.272;18.558;2023-06-14T06:52:14;101273.16;;;21.11;49.12
68807;BME280;55800;54.272;18.558;2023-06-14T06:54:43;101278.44;;;21.25;48.97
68807;BME280;55800;54.272;18.558;2023-06-14T06:57:13;101273.91;;;21.36;48.80
68807;BME280;55800;54.272;18.558;2023-06-14T06:59:42;101274.81;;;21.48;48.65
68807;BME280;55800;54.272;18.558;2023-06-14T07:02:11;101267.81;;;21.56;48.28
68807;BME280;55800;54.272;18.558;2023-06-14T07:04:41;101266.22;;;21.65;47.86
68807;BME280;55800;54.272;18.558;2023-06-14T07:07:11;101278.13;;;21.75;47.76
68807;BME280;55800;54.272;18.558;2023-06-14T07:09:41;101273.56;;;21.75;47.13
68807;BME280;55800;54.272;18.558;2023-06-14T07:12:11;101275.75;;;21.70;46.16
68807;BME280;55800;54.272;18.558;2023-06-14T07:14:40;101282.97;;;21.71;46.43
68807;BME280;55800;54.272;18.558;2023-06-14T07:17:09;101289.16;;;21.73;45.67
68807;BME280;55800;54.272;18.558;2023-06-14T07:19:39;101283.69;;;21.73;45.63
68807;BME280;55800;54.272;18.558;2023-06-14T07:22:11;101277.03;;;21.77;45.20
68807;BME280;55800;54.272;18.558;2023-06-14T07:24:41;101287.91;;;21.77;45.37
68807;BME280;55800;54.272;18.558;2023-06-14T07:27:10;101289.63;;;21.78;44.79
68807;BME280;55800;54.272;18.558;2023-06-14T07:29:42;101289.09;;;21.86;44.91
68807;BME280;55800;54.272;18.558;2023-06-14T07:32:11;101289.72;;;21.90;44.37
68807;BME280;55800;54.272;18.558;2023-06-14T07:34:41;101284.53;;;21.98;45.31
68807;BME280;55800;54.272;18.558;2023-06-14T07:37:11;101283.44;;;22.11;45.04
68807;BME280;55800;54.272;18.558;2023-06-14T07:39:41;101284.94;;;22.15;44.34
68807;BME280;55800;54.272;18.558;2023-06-14T07:42:10;101282.47;;;22.23;44.60
68807;BME280;55800;54.272;18.558;2023-06-14T07:44:40;101284.31;;;22.34;44.58
68807;BME280;55800;54.272;18.558;2023-06-14T07:47:09;101287.28;;;22.42;43.69
68807;BME280;55800;54.272;18.558;2023-06-14T07:49:38;101290.03;;;22.53;43.71
68807;BME280;55800;54.272;18.558;2023-06-14T07:52:08;101289.06;;;22.65;44.06
68807;BME280;55800;54.272;18.558;2023-06-14T07:54:40;101290.91;;;22.76;44.18
68807;BME280;55800;54.272;18.558;2023-06-14T07:57:09;101291.41;;;22.92;43.65
68807;BME280;55800;54.272;18.558;2023-06-14T07:59:39;101286.81;;;22.92;42.59
68807;BME280;55800;54.272;18.558;2023-06-14T08:02:08;101285.66;;;23.06;42.67
68807;BME280;55800;54.272;18.558;2023-06-14T08:04:38;101297.28;;;23.19;43.04
68807;BME280;55800;54.272;18.558;2023-06-14T08:07:08;101301.63;;;23.33;42.83
68807;BME280;55800;54.272;18.558;2023-06-14T08:09:37;101292.88;;;23.50;43.05
68807;BME280;55800;54.272;18.558;2023-06-14T08:12:09;101293.88;;;23.69;43.11
68807;BME280;55800;54.272;18.558;2023-06-14T08:14:39;101286.50;;;23.81;41.59
68807;BME280;55800;54.272;18.558;2023-06-14T08:17:09;101291.78;;;23.93;42.44
68807;BME280;55800;54.272;18.558;2023-06-14T08:19:38;101292.59;;;24.05;42.12
68807;BME280;55800;54.272;18.558;2023-06-14T08:22:08;101300.78;;;24.05;40.18
68807;BME280;55800;54.272;18.558;2023-06-14T08:24:39;101307.47;;;24.12;40.43
68807;BME280;55800;54.272;18.558;2023-06-14T08:27:11;101299.81;;;24.06;40.22
68807;BME280;55800;54.272;18.558;2023-06-14T08:29:41;101302.91;;;24.22;40.62
68807;BME280;55800;54.272;18.558;2023-06-14T08:32:12;101301.19;;;24.21;39.00
68807;BME280;55800;54.272;18.558;2023-06-14T08:34:42;101298.31;;;24.23;39.03
68807;BME280;55800;54.272;18.558;2023-06-14T08:37:23;101298.81;;;24.37;40.19
68807;BME280;55800;54.272;18.558;2023-06-14T08:39:53;101301.63;;;24.47;39.66
68807;BME280;55800;54.272;18.558;2023-06-14T08:42:24;101307.66;;;24.50;39.78
68807;BME280;55800;54.272;18.558;2023-06-14T08:44:59;101307.75;;;24.60;38.80
68807;BME280;55800;54.272;18.558;2023-06-14T08:47:29;101298.81;;;24.67;39.23
68807;BME280;55800;54.272;18.558;2023-06-14T08:50:09;101307.03;;;24.67;38.53
68807;BME280;55800;54.272;18.558;2023-06-14T08:52:55;101310.66;;;24.68;38.53
68807;BME280;55800;54.272;18.558;2023-06-14T08:55:29;101303.31;;;24.68;37.74
68807;BME280;55800;54.272;18.558;2023-06-14T08:58:03;101294.22;;;24.68;38.24
68807;BME280;55800;54.272;18.558;2023-06-14T09:00:33;101302.94;;;24.83;38.96
68807;BME280;55800;54.272;18.558;2023-06-14T09:03:02;101302.97;;;24.92;38.72
68807;BME280;55800;54.272;18.558;2023-06-14T09:05:37;101310.19;;;25.03;38.97
68807;BME280;55800;54.272;18.558;2023-06-14T09:08:06;101310.97;;;25.14;38.40
68807;BME280;55800;54.272;18.558;2023-06-14T09:10:36;101308.94;;;25.26;39.37
68807;BME280;55800;54.272;18.558;2023-06-14T09:13:07;101301.34;;;25.29;38.39
68807;BME280;55800;54.272;18.558;2023-06-14T09:15:37;101304.78;;;25.41;38.82
68807;BME280;55800;54.272;18.558;2023-06-14T09:18:06;101300.06;;;25.43;38.35
68807;BME280;55800;54.272;18.558;2023-06-14T09:20:36;101305.16;;;25.57;39.01
68807;BME280;55800;54.272;18.558;2023-06-14T09:23:05;101295.50;;;25.53;38.23
68807;BME280;55800;54.272;18.558;2023-06-14T09:25:42;101300.81;;;25.64;38.71
68807;BME280;55800;54.272;18.558;2023-06-14T09:28:15;101296.03;;;25.66;36.95
68807;BME280;55800;54.272;18.558;2023-06-14T09:30:44;101292.16;;;25.69;37.15
68807;BME280;55800;54.272;18.558;2023-06-14T09:33:17;101297.50;;;25.70;36.93
68807;BME280;55800;54.272;18.558;2023-06-14T09:35:50;101292.44;;;25.75;37.36
68807;BME280;55800;54.272;18.558;2023-06-14T09:38:20;101293.75;;;25.71;36.95
68807;BME280;55800;54.272;18.558;2023-06-14T09:40:50;101297.34;;;25.81;37.53
68807;BME280;55800;54.272;18.558;2023-06-14T09:43:21;101299.53;;;25.87;37.27
68807;BME280;55800;54.272;18.558;2023-06-14T09:45:52;101295.03;;;25.86;37.64
68807;BME280;55800;54.272;18.558;2023-06-14T09:48:22;101293.84;;;25.98;38.17
68807;BME280;55800;54.272;18.558;2023-06-14T09:50:52;101294.16;;;25.95;37.26
68807;BME280;55800;54.272;18.558;2023-06-14T09:53:25;101298.78;;;25.95;37.78
68807;BME280;55800;54.272;18.558;2023-06-14T09:55:55;101299.50;;;25.97;37.79
68807;BME280;55800;54.272;18.558;2023-06-14T09:58:29;101300.09;;;25.91;37.04
68807;BME280;55800;54.272;18.558;2023-06-14T10:01:00;101293.28;;;25.85;37.21
68807;BME280;55800;54.272;18.558;2023-06-14T10:03:31;101293.72;;;25.90;36.98
68807;BME280;55800;54.272;18.558;2023-06-14T10:06:22;101292.88;;;25.80;36.49
68807;BME280;55800;54.272;18.558;2023-06-14T10:08:55;101292.72;;;25.91;36.67
68807;BME280;55800;54.272;18.558;2023-06-14T10:11:26;101292.03;;;25.89;37.09
68807;BME280;55800;54.272;18.558;2023-06-14T10:13:58;101295.16;;;25.94;37.18
68807;BME280;55800;54.272;18.558;2023-06-14T10:16:32;101293.44;;;25.93;37.27
68807;BME280;55800;54.272;18.558;2023-06-14T10:19:07;101292.16;;;25.97;37.45
68807;BME280;55800;54.272;18.558;2023-06-14T10:21:43;101279.88;;;26.01;37.53
68807;BME280;55800;54.272;18.558;2023-06-14T10:24:18;101293.56;;;26.01;36.96
68807;BME280;55800;54.272;18.558;2023-06-14T10:26:53;101272.94;;;26.16;36.87
68807;BME280;55800;54.272;18.558;2023-06-14T10:29:28;101274.81;;;26.16;36.25
68807;BME280;55800;54.272;18.558;2023-06-14T10:32:01;101275.81;;;26.24;36.81
68807;BME280;55800;54.272;18.558;2023-06-14T10:34:31;101274.72;;;26.45;36.81
68807;BME280;55800;54.272;18.558;2023-06-14T10:37:04;101274.44;;;26.48;35.67
68807;BME280;55800;54.272;18.558;2023-06-14T10:39:40;101268.50;;;26.52;35.61
68807;BME280;55800;54.272;18.558;2023-06-14T10:42:10;101265.41;;;26.65;36.22
68807;BME280;55800;54.272;18.558;2023-06-14T10:44:43;101264.38;;;26.66;35.62
68807;BME280;55800;54.272;18.558;2023-06-14T10:47:26;101267.84;;;26.68;34.96
68807;BME280;55800;54.272;18.558;2023-06-14T10:49:57;101267.41;;;26.72;34.98
68807;BME280;55800;54.272;18.558;2023-06-14T10:52:34;101262.81;;;26.63;34.31
68807;BME280;55800;54.272;18.558;2023-06-14T10:55:08;101267.53;;;26.71;34.67
68807;BME280;55800;54.272;18.558;2023-06-14T10:57:45;101253.56;;;26.74;33.44
68807;BME280;55800;54.272;18.558;2023-06-14T11:00:22;101259.75;;;26.76;35.31
68807;BME280;55800;54.272;18.558;2023-06-14T11:03:36;101266.13;;;26.67;33.77
68807;BME280;55800;54.272;18.558;2023-06-14T11:06:14;101260.44;;;26.51;34.08
68807;BME280;55800;54.272;18.558;2023-06-14T11:11:46;101259.75;;;26.66;34.92
68807;BME280;55800;54.272;18.558;2023-06-14T11:14:17;101263.09;;;26.70;34.07
68807;BME280;55800;54.272;18.558;2023-06-14T11:16:50;101249.50;;;26.68;34.57
68807;BME280;55800;54.272;18.558;2023-06-14T11:19:21;101255.84;;;26.69;34.81
68807;BME280;55800;54.272;18.558;2023-06-14T11:21:50;101260.91;;;26.64;34.49
68807;BME280;55800;54.272;18.558;2023-06-14T11:24:20;101253.63;;;26.55;33.51
68807;BME280;55800;54.272;18.558;2023-06-14T11:26:49;101257.06;;;26.57;33.62
68807;BME280;55800;54.272;18.558;2023-06-14T11:29:20;101253.63;;;26.55;33.64
68807;BME280;55800;54.272;18.558;2023-06-14T11:31:51;101250.78;;;26.47;34.03
68807;BME280;55800;54.272;18.558;2023-06-14T11:34:21;101264.50;;;26.47;33.42
68807;BME280;55800;54.272;18.558;2023-06-14T11:36:50;101252.94;;;26.43;33.62
68807;BME280;55800;54.272;18.558;2023-06-14T11:39:24;101259.19;;;26.36;33.62
68807;BME280;55800;54.272;18.558;2023-06-14T11:41:55;101257.88;;;26.40;33.78
68807;BME280;55800;54.272;18.558;2023-06-14T11:44:25;101248.78;;;26.39;32.50
68807;BME280;55800;54.272;18.558;2023-06-14T11:46:56;101253.69;;;26.36;31.97
68807;BME280;55800;54.272;18.558;2023-06-14T11:49:26;101243.84;;;26.43;32.58
68807;BME280;55800;54.272;18.558;2023-06-14T11:51:56;101237.78;;;26.49;32.64
68807;BME280;55800;54.272;18.558;2023-06-14T11:54:25;101248.13;;;26.55;32.85
68807;BME280;55800;54.272;18.558;2023-06-14T11:56:54;101244.69;;;26.53;32.12
68807;BME280;55800;54.272;18.558;2023-06-14T11:59:25;101245.06;;;26.58;33.29
68807;BME280;55800;54.272;18.558;2023-06-14T12:01:56;101237.25;;;26.63;33.53
68807;BME280;55800;54.272;18.558;2023-06-14T12:04:27;101237.25;;;26.63;33.00
68807;BME280;55800;54.272;18.558;2023-06-14T12:07:02;101228.50;;;26.59;32.87
68807;BME280;55800;54.272;18.558;2023-06-14T12:09:46;101239.06;;;26.45;31.91
68807;BME280;55800;54.272;18.558;2023-06-14T12:12:36;101231.56;;;26.47;32.15
68807;BME280;55800;54.272;18.558;2023-06-14T12:15:08;101236.94;;;26.39;32.28
68807;BME280;55800;54.272;18.558;2023-06-14T12:17:41;101233.63;;;26.35;32.44
68807;BME280;55800;54.272;18.558;2023-06-14T12:20:13;101234.97;;;26.21;32.06
68807;BME280;55800;54.272;18.558;2023-06-14T12:22:53;101226.47;;;26.24;32.07
68807;BME280;55800;54.272;18.558;2023-06-14T12:25:27;101232.75;;;26.35;32.26
68807;BME280;55800;54.272;18.558;2023-06-14T12:27:59;101227.00;;;26.28;32.38
68807;BME280;55800;54.272;18.558;2023-06-14T12:30:28;101234.84;;;26.23;32.90
68807;BME280;55800;54.272;18.558;2023-06-14T12:32:59;101230.69;;;26.09;32.70
68807;BME280;55800;54.272;18.558;2023-06-14T12:35:29;101229.06;;;26.07;33.05
68807;BME280;55800;54.272;18.558;2023-06-14T12:37:58;101230.00;;;25.98;32.64
68807;BME280;55800;54.272;18.558;2023-06-14T12:40:28;101234.16;;;25.92;32.78
68807;BME280;55800;54.272;18.558;2023-06-14T12:42:57;101226.06;;;26.00;33.01
68807;BME280;55800;54.272;18.558;2023-06-14T12:45:27;101222.91;;;25.95;33.13
68807;BME280;55800;54.272;18.558;2023-06-14T12:47:59;101238.34;;;25.96;33.17
68807;BME280;55800;54.272;18.558;2023-06-14T12:50:33;101225.22;;;26.00;33.42
68807;BME280;55800;54.272;18.558;2023-06-14T12:53:02;101229.13;;;25.97;33.35
68807;BME280;55800;54.272;18.558;2023-06-14T12:55:32;101239.75;;;26.00;33.56
68807;BME280;55800;54.272;18.558;2023-06-14T12:58:01;101232.44;;;25.91;33.48
68807;BME280;55800;54.272;18.558;2023-06-14T13:00:31;101226.25;;;25.89;33.81
68807;BME280;55800;54.272;18.558;2023-06-14T13:03:02;101226.66;;;26.04;33.69
68807;BME280;55800;54.272;18.558;2023-06-14T13:05:32;101223.03;;;26.13;34.17
68807;BME280;55800;54.272;18.558;2023-06-14T13:08:01;101219.56;;;26.20;34.38